createdAt,value
2019-05-07T00:00:29.313Z,99.90
2019-05-07T00:02:57.768Z,99.90
2019-05-07T00:05:26.198Z,99.90
2019-05-07T00:07:54.595Z,99.90
2019-05-07T00:10:24.943Z,99.90
2019-05-07T00:12:53.148Z,99.90
2019-05-07T00:15:23.021Z,99.90
2019-05-07T00:17:52.222Z,99.90
2019-05-07T00:20:23.005Z,99.90
2019-05-07T00:22:53.248Z,99.90
2019-05-07T00:25:22.875Z,99.90
2019-05-07T00:27:52.318Z,99.90
2019-05-07T00:30:22.337Z,99.90
2019-05-07T00:32:52.930Z,99.90
2019-05-07T00:35:22.673Z,99.90
2019-05-07T00:37:52.770Z,99.90
2019-05-07T00:40:28.632Z,99.90
2019-05-07T00:43:07.532Z,99.90
2019-05-07T00:45:42.150Z,99.90
2019-05-07T00:48:12.608Z,99.90
2019-05-07T00:50:42.657Z,99.90
2019-05-07T00:53:13.090Z,99.90
2019-05-07T00:55:42.290Z,99.90
2019-05-07T00:58:13.109Z,99.90
2019-05-07T01:00:42.093Z,99.90
2019-05-07T01:03:12.741Z,99.90
2019-05-07T01:05:43.037Z,99.90
2019-05-07T01:08:13.008Z,99.90
2019-05-07T01:10:41.985Z,99.90
2019-05-07T01:13:12.545Z,99.90
2019-05-07T01:15:42.758Z,99.90
2019-05-07T01:18:12.372Z,99.90
2019-05-07T01:20:42.253Z,99.90
2019-05-07T01:23:13.208Z,99.90
2019-05-07T01:25:43.058Z,99.90
2019-05-07T01:28:13.192Z,99.90
2019-05-07T01:30:43.191Z,99.90
2019-05-07T01:33:13.057Z,99.90
2019-05-07T01:35:45.785Z,99.90
2019-05-07T01:38:18.931Z,99.90
2019-05-07T01:40:47.326Z,99.90
2019-05-07T01:43:15.720Z,99.90
2019-05-07T01:45:49.155Z,99.90
2019-05-07T01:48:15.498Z,99.90
2019-05-07T01:50:43.944Z,99.90
2019-05-07T01:53:12.404Z,99.90
2019-05-07T01:55:42.795Z,99.90
2019-05-07T01:58:12.521Z,99.90
2019-05-07T02:00:42.421Z,99.90
2019-05-07T02:03:27.676Z,99.90
2019-05-07T02:06:02.181Z,99.90
2019-05-07T02:08:38.369Z,99.90
2019-05-07T02:11:26.657Z,99.90
2019-05-07T02:13:55.081Z,99.90
2019-05-07T02:16:23.472Z,99.90
2019-05-07T02:18:52.830Z,99.90
2019-05-07T02:21:22.089Z,99.90
2019-05-07T02:23:52.367Z,99.90
2019-05-07T02:26:22.562Z,99.90
2019-05-07T02:28:51.841Z,99.90
2019-05-07T02:31:22.948Z,99.90
2019-05-07T02:33:53.861Z,99.90
2019-05-07T02:36:23.850Z,99.90
2019-05-07T02:38:55.719Z,99.90
2019-05-07T02:41:25.789Z,99.90
2019-05-07T02:43:54.211Z,99.90
2019-05-07T02:46:32.929Z,99.90
2019-05-07T02:49:13.884Z,99.90
2019-05-07T02:51:43.561Z,99.90
2019-05-07T02:54:20.110Z,99.90
2019-05-07T02:56:48.521Z,99.90
2019-05-07T02:59:16.914Z,99.90
2019-05-07T03:01:45.377Z,99.90
2019-05-07T03:04:13.807Z,99.90
2019-05-07T03:06:44.253Z,99.90
2019-05-07T03:09:14.526Z,99.90
2019-05-07T03:11:43.432Z,99.90
2019-05-07T03:14:14.015Z,99.90
2019-05-07T03:16:45.452Z,99.90
2019-05-07T03:19:13.364Z,99.90
2019-05-07T03:21:55.297Z,99.90
2019-05-07T03:24:43.596Z,99.90
2019-05-07T03:27:14.134Z,99.90
2019-05-07T03:29:44.490Z,99.90
2019-05-07T03:32:38.358Z,99.90
2019-05-07T03:35:07.183Z,99.90
2019-05-07T03:37:36.779Z,99.90
2019-05-07T03:40:07.327Z,99.90
2019-05-07T03:42:35.755Z,99.90
2019-05-07T03:45:13.451Z,99.90
2019-05-07T03:47:43.873Z,99.90
2019-05-07T03:50:14.877Z,99.90
2019-05-07T03:52:43.489Z,99.90
2019-05-07T03:55:14.545Z,99.90
2019-05-07T03:57:43.765Z,99.90
2019-05-07T04:00:13.303Z,99.90
2019-05-07T04:02:43.783Z,99.90
2019-05-07T04:05:14.004Z,99.90
2019-05-07T04:07:43.180Z,99.90
2019-05-07T04:10:14.937Z,99.90
2019-05-07T04:12:44.144Z,99.90
2019-05-07T04:15:14.505Z,99.90
2019-05-07T04:17:43.229Z,99.90
2019-05-07T04:20:13.479Z,99.90
2019-05-07T04:22:43.325Z,99.90
2019-05-07T04:25:30.574Z,99.90
2019-05-07T04:28:09.675Z,99.90
2019-05-07T04:30:38.505Z,99.90
2019-05-07T04:33:08.540Z,99.90
2019-05-07T04:35:43.381Z,99.90
2019-05-07T04:38:13.751Z,99.90
2019-05-07T04:40:43.437Z,99.90
2019-05-07T04:43:13.542Z,99.90
2019-05-07T04:45:43.322Z,99.90
2019-05-07T04:48:14.177Z,99.90
2019-05-07T04:50:47.565Z,99.90
2019-05-07T04:53:14.086Z,99.90
2019-05-07T04:55:43.032Z,99.90
2019-05-07T04:58:13.977Z,99.90
2019-05-07T05:00:43.058Z,99.90
2019-05-07T05:03:23.742Z,99.90
2019-05-07T05:05:53.207Z,99.90
2019-05-07T05:08:23.451Z,99.90
2019-05-07T05:10:53.665Z,99.90
2019-05-07T05:13:23.667Z,99.90
2019-05-07T05:15:52.834Z,99.90
2019-05-07T05:18:22.054Z,99.90
2019-05-07T05:21:08.233Z,99.90
2019-05-07T05:23:38.303Z,99.90
2019-05-07T05:26:06.734Z,99.90
2019-05-07T05:28:35.187Z,99.90
2019-05-07T05:31:05.270Z,99.90
2019-05-07T05:33:33.666Z,99.90
2019-05-07T05:36:03.060Z,99.90
2019-05-07T05:38:32.939Z,99.90
2019-05-07T05:41:02.729Z,99.90
2019-05-07T05:43:33.036Z,99.90
2019-05-07T05:46:03.242Z,99.90
2019-05-07T05:48:33.356Z,99.90
2019-05-07T05:51:03.445Z,99.90
2019-05-07T05:53:36.402Z,99.90
2019-05-07T05:56:07.387Z,99.90
2019-05-07T05:58:40.187Z,99.90
2019-05-07T06:01:16.280Z,99.90
2019-05-07T06:03:46.316Z,99.90
2019-05-07T06:06:19.101Z,99.90
2019-05-07T06:08:54.956Z,99.90
2019-05-07T06:11:28.064Z,99.90
2019-05-07T06:13:58.097Z,99.90
2019-05-07T06:16:28.142Z,99.90
2019-05-07T06:19:16.503Z,99.90
2019-05-07T06:22:02.132Z,99.90
2019-05-07T06:24:42.664Z,99.90
2019-05-07T06:27:12.286Z,99.90
2019-05-07T06:29:42.639Z,99.90
2019-05-07T06:32:12.574Z,99.90
2019-05-07T06:34:44.496Z,99.90
2019-05-07T06:37:11.911Z,99.90
2019-05-07T06:39:58.636Z,99.90
2019-05-07T06:42:47.069Z,99.90
2019-05-07T06:45:17.377Z,99.90
2019-05-07T06:47:45.851Z,99.90
2019-05-07T06:50:14.338Z,99.90
2019-05-07T06:52:43.002Z,99.90
2019-05-07T06:55:12.218Z,99.90
2019-05-07T06:57:42.519Z,99.90
2019-05-07T07:00:22.557Z,99.90
2019-05-07T07:02:55.457Z,99.90
2019-05-07T07:05:34.554Z,99.90
2019-05-07T07:08:17.091Z,99.90
2019-05-07T07:10:52.064Z,99.90
2019-05-07T07:13:22.806Z,99.90
2019-05-07T07:15:52.179Z,99.90
2019-05-07T07:18:22.908Z,99.90
2019-05-07T07:20:52.455Z,99.90
2019-05-07T07:23:22.624Z,99.90
2019-05-07T07:25:52.222Z,99.90
2019-05-07T07:28:21.896Z,99.90
2019-05-07T07:30:54.912Z,99.90
2019-05-07T07:33:24.976Z,99.90
2019-05-07T07:35:53.369Z,99.90
2019-05-07T07:38:26.364Z,99.90
2019-05-07T07:40:56.822Z,99.90
2019-05-07T07:43:25.237Z,99.90
2019-05-07T07:45:53.634Z,99.70
2019-05-07T07:48:24.526Z,98.40
2019-05-07T07:50:52.474Z,97.10
2019-05-07T07:53:22.724Z,95.80
2019-05-07T07:56:09.265Z,95.30
2019-05-07T07:58:52.410Z,92.70
2019-05-07T08:01:22.864Z,93.10
2019-05-07T08:03:52.247Z,93.40
2019-05-07T08:06:42.209Z,92.60
2019-05-07T08:09:12.761Z,91.50
2019-05-07T08:11:42.530Z,91.20
2019-05-07T08:14:12.679Z,90.50
2019-05-07T08:16:42.971Z,91.00
2019-05-07T08:19:21.810Z,90.90
2019-05-07T08:21:42.238Z,91.50
2019-05-07T08:24:12.273Z,91.50
2019-05-07T08:26:42.783Z,91.20
2019-05-07T08:29:11.879Z,90.20
2019-05-07T08:31:42.510Z,89.60
2019-05-07T08:34:15.085Z,90.40
2019-05-07T08:36:43.484Z,90.60
2019-05-07T08:39:12.964Z,89.90
2019-05-07T08:41:42.328Z,89.90
2019-05-07T08:44:15.415Z,90.50
2019-05-07T08:46:53.420Z,90.00
2019-05-07T08:49:35.565Z,89.20
2019-05-07T08:52:03.596Z,90.30
2019-05-07T08:54:32.491Z,87.70
2019-05-07T08:57:01.967Z,88.50
2019-05-07T08:59:32.056Z,87.50
2019-05-07T09:02:02.879Z,87.60
2019-05-07T09:04:32.768Z,85.10
2019-05-07T09:07:02.723Z,85.50
2019-05-07T09:09:32.387Z,84.30
2019-05-07T09:12:03.047Z,83.70
2019-05-07T09:14:32.231Z,82.10
2019-05-07T09:17:02.612Z,80.20
2019-05-07T09:19:32.413Z,81.80
2019-05-07T09:22:02.160Z,81.30
2019-05-07T09:24:32.997Z,80.70
2019-05-07T09:27:02.894Z,76.40
2019-05-07T09:29:35.452Z,74.80
2019-05-07T09:32:17.550Z,71.00
2019-05-07T09:34:52.056Z,66.00
2019-05-07T09:37:32.601Z,64.60
2019-05-07T09:40:02.892Z,64.00
2019-05-07T09:42:33.147Z,58.80
2019-05-07T09:45:01.899Z,62.20
2019-05-07T09:47:32.490Z,64.90
2019-05-07T09:50:05.549Z,64.90
2019-05-07T09:52:32.129Z,64.70
2019-05-07T09:55:11.003Z,62.80
2019-05-07T09:57:34.378Z,61.90
2019-05-07T10:00:02.233Z,60.60
2019-05-07T10:02:32.010Z,60.30
2019-05-07T10:05:02.477Z,59.80
2019-05-07T10:07:32.531Z,60.10
2019-05-07T10:10:03.156Z,58.60
2019-05-07T10:12:33.122Z,59.50
2019-05-07T10:15:03.110Z,59.70
2019-05-07T10:17:33.522Z,59.70
2019-05-07T10:20:04.441Z,58.30
2019-05-07T10:22:32.459Z,60.20
2019-05-07T10:25:02.836Z,58.50
2019-05-07T10:27:32.503Z,58.90
2019-05-07T10:30:02.727Z,57.90
2019-05-07T10:32:32.223Z,57.00
2019-05-07T10:35:02.220Z,57.30
2019-05-07T10:37:31.900Z,58.30
2019-05-07T10:40:02.847Z,59.00
2019-05-07T10:42:32.390Z,59.50
2019-05-07T10:45:03.166Z,58.80
2019-05-07T10:47:48.253Z,57.80
2019-05-07T10:50:38.949Z,59.20
2019-05-07T10:53:02.126Z,60.10
2019-05-07T10:55:32.828Z,60.50
2019-05-07T10:58:03.002Z,61.10
2019-05-07T11:00:33.131Z,60.70
2019-05-07T11:03:02.338Z,61.10
2019-05-07T11:05:32.682Z,60.90
2019-05-07T11:08:02.314Z,64.00
2019-05-07T11:10:32.651Z,65.50
2019-05-07T11:13:02.312Z,67.10
2019-05-07T11:15:32.640Z,69.90
2019-05-07T11:18:15.312Z,69.50
2019-05-07T11:20:49.655Z,68.10
2019-05-07T11:23:14.036Z,68.30
2019-05-07T11:25:42.613Z,67.70
2019-05-07T11:28:12.351Z,66.50
2019-05-07T11:30:42.579Z,66.30
2019-05-07T11:33:12.884Z,64.10
2019-05-07T11:35:42.249Z,62.20
2019-05-07T11:38:18.662Z,62.20
2019-05-07T11:40:42.783Z,61.20
2019-05-07T11:43:29.752Z,58.20
2019-05-07T11:46:08.602Z,58.10
2019-05-07T11:48:38.710Z,56.50
2019-05-07T11:51:08.765Z,55.60
2019-05-07T11:53:38.789Z,55.00
2019-05-07T11:56:07.221Z,53.70
2019-05-07T11:58:35.632Z,52.10
2019-05-07T12:01:07.329Z,50.80
2019-05-07T12:03:35.804Z,50.50
2019-05-07T12:06:04.274Z,50.30
2019-05-07T12:08:42.964Z,51.50
2019-05-07T12:11:02.897Z,53.40
2019-05-07T12:13:32.283Z,52.90
2019-05-07T12:16:02.901Z,53.20
2019-05-07T12:18:31.955Z,53.90
2019-05-07T12:21:03.888Z,53.90
2019-05-07T12:23:33.055Z,55.00
2019-05-07T12:26:02.273Z,54.50
2019-05-07T12:28:32.792Z,55.00
2019-05-07T12:31:02.883Z,52.30
2019-05-07T12:33:44.753Z,50.50
2019-05-07T12:36:14.818Z,49.70
2019-05-07T12:38:43.204Z,48.60
2019-05-07T12:41:29.926Z,47.20
2019-05-07T12:44:02.710Z,47.20
2019-05-07T12:46:33.161Z,45.80
2019-05-07T12:49:03.153Z,47.00
2019-05-07T12:51:37.204Z,46.90
2019-05-07T12:54:06.169Z,48.00
2019-05-07T12:56:35.389Z,49.30
2019-05-07T12:59:04.157Z,48.60
2019-05-07T13:01:46.441Z,49.80
2019-05-07T13:04:34.909Z,48.60
2019-05-07T13:07:13.781Z,48.80
2019-05-07T13:09:42.747Z,49.10
2019-05-07T13:12:11.256Z,49.30
2019-05-07T13:14:39.707Z,48.90
2019-05-07T13:17:08.105Z,48.70
2019-05-07T13:19:39.139Z,48.10
2019-05-07T13:22:06.672Z,47.80
2019-05-07T13:24:35.080Z,47.50
2019-05-07T13:27:04.740Z,46.60
2019-05-07T13:29:33.442Z,45.40
2019-05-07T13:32:03.654Z,44.10
2019-05-07T13:34:34.152Z,43.80
2019-05-07T13:37:07.456Z,43.20
2019-05-07T13:39:40.365Z,43.50
2019-05-07T13:42:13.073Z,44.00
2019-05-07T13:44:43.140Z,44.80
2019-05-07T13:47:31.657Z,46.40
2019-05-07T13:50:02.631Z,47.50
2019-05-07T13:52:32.891Z,48.40
2019-05-07T13:55:01.163Z,49.20
2019-05-07T13:57:29.767Z,48.00
2019-05-07T13:59:58.164Z,48.10
2019-05-07T14:02:28.192Z,48.40
2019-05-07T14:04:56.702Z,48.70
2019-05-07T14:07:26.588Z,48.90
2019-05-07T14:09:55.057Z,49.30
2019-05-07T14:12:23.700Z,48.90
2019-05-07T14:14:53.025Z,48.10
2019-05-07T14:17:22.128Z,47.50
2019-05-07T14:19:52.868Z,46.50
2019-05-07T14:22:22.606Z,45.30
2019-05-07T14:24:53.059Z,45.70
2019-05-07T14:27:21.450Z,45.30
2019-05-07T14:29:51.775Z,44.10
2019-05-07T14:32:28.087Z,44.60
2019-05-07T14:35:04.704Z,44.90
2019-05-07T14:37:34.725Z,46.20
2019-05-07T14:40:04.371Z,47.40
2019-05-07T14:42:34.632Z,47.10
2019-05-07T14:45:04.575Z,48.10
2019-05-07T14:47:32.968Z,48.80
2019-05-07T14:50:02.117Z,49.20
2019-05-07T14:52:35.521Z,49.60
2019-05-07T14:55:05.103Z,50.40
2019-05-07T14:57:32.553Z,50.00
2019-05-07T15:00:03.059Z,50.00
2019-05-07T15:02:32.570Z,50.30
2019-05-07T15:05:02.785Z,50.00
2019-05-07T15:07:32.674Z,48.70
2019-05-07T15:10:02.311Z,49.20
2019-05-07T15:12:32.881Z,49.80
2019-05-07T15:15:02.236Z,49.90
2019-05-07T15:17:48.112Z,50.10
2019-05-07T15:20:16.686Z,50.20
2019-05-07T15:22:50.113Z,49.60
2019-05-07T15:25:19.836Z,49.90
2019-05-07T15:27:49.757Z,50.90
2019-05-07T15:30:18.353Z,51.70
2019-05-07T15:32:46.844Z,51.00
2019-05-07T15:35:15.437Z,51.70
2019-05-07T15:37:43.829Z,51.70
2019-05-07T15:40:12.501Z,51.50
2019-05-07T15:42:42.151Z,53.30
2019-05-07T15:45:12.548Z,51.90
2019-05-07T15:47:45.806Z,50.30
2019-05-07T15:50:14.441Z,49.70
2019-05-07T15:52:58.092Z,48.90
2019-05-07T15:55:22.426Z,47.30
2019-05-07T15:57:52.173Z,47.60
2019-05-07T16:00:28.661Z,46.60
2019-05-07T16:03:07.897Z,46.20
2019-05-07T16:05:36.529Z,45.60
2019-05-07T16:08:07.635Z,47.30
2019-05-07T16:10:36.070Z,47.90
2019-05-07T16:13:04.738Z,49.70
2019-05-07T16:15:33.464Z,49.30
2019-05-07T16:18:03.531Z,49.60
2019-05-07T16:20:32.556Z,49.10
2019-05-07T16:23:14.444Z,49.30
2019-05-07T16:25:33.017Z,48.10
2019-05-07T16:28:04.428Z,48.20
2019-05-07T16:30:32.371Z,48.50
2019-05-07T16:33:02.083Z,49.30
2019-05-07T16:35:32.001Z,49.30
2019-05-07T16:38:00.743Z,50.90
2019-05-07T16:40:29.156Z,49.30
2019-05-07T16:42:57.586Z,48.30
2019-05-07T16:45:25.979Z,48.10
2019-05-07T16:47:54.395Z,48.20
2019-05-07T16:50:22.789Z,46.90
2019-05-07T16:52:52.413Z,46.90
2019-05-07T16:55:22.409Z,46.40
2019-05-07T16:58:04.884Z,45.30
2019-05-07T17:00:37.694Z,45.80
2019-05-07T17:03:07.733Z,46.90
2019-05-07T17:05:36.160Z,48.30
2019-05-07T17:08:06.216Z,47.80
2019-05-07T17:10:34.629Z,47.40
2019-05-07T17:13:03.084Z,48.70
2019-05-07T17:15:33.127Z,48.20
2019-05-07T17:18:02.830Z,48.20
2019-05-07T17:20:32.692Z,48.90
2019-05-07T17:23:02.992Z,48.20
2019-05-07T17:25:37.575Z,49.60
2019-05-07T17:28:07.430Z,49.30
2019-05-07T17:30:37.723Z,50.20
2019-05-07T17:33:06.919Z,50.70
2019-05-07T17:35:35.534Z,51.20
2019-05-07T17:38:07.202Z,49.20
2019-05-07T17:40:34.225Z,49.40
2019-05-07T17:43:03.175Z,50.90
2019-05-07T17:45:32.412Z,51.60
2019-05-07T17:48:03.246Z,52.30
2019-05-07T17:50:34.053Z,52.00
2019-05-07T17:53:02.448Z,52.70
2019-05-07T17:55:32.980Z,53.90
2019-05-07T17:58:02.019Z,55.20
2019-05-07T18:00:32.715Z,55.80
2019-05-07T18:03:18.444Z,57.00
2019-05-07T18:05:47.114Z,58.40
2019-05-07T18:08:15.510Z,58.40
2019-05-07T18:10:43.909Z,59.50
2019-05-07T18:13:12.341Z,60.90
2019-05-07T18:15:42.651Z,60.20
2019-05-07T18:18:14.318Z,60.80
2019-05-07T18:20:42.775Z,62.00
2019-05-07T18:23:16.616Z,62.30
2019-05-07T18:25:42.907Z,62.90
2019-05-07T18:28:12.450Z,64.10
2019-05-07T18:30:40.930Z,64.90
2019-05-07T18:33:13.676Z,65.10
2019-05-07T18:35:42.949Z,66.40
2019-05-07T18:38:11.365Z,67.80
2019-05-07T18:40:42.008Z,69.40
2019-05-07T18:43:12.072Z,70.80
2019-05-07T18:45:40.053Z,72.70
2019-05-07T18:48:08.448Z,74.30
2019-05-07T18:50:36.885Z,76.10
2019-05-07T18:53:05.291Z,76.90
2019-05-07T18:55:33.698Z,78.50
2019-05-07T18:58:02.771Z,79.10
2019-05-07T19:00:38.853Z,79.60
2019-05-07T19:03:07.323Z,80.00
2019-05-07T19:05:35.762Z,80.80
2019-05-07T19:08:08.036Z,80.80
2019-05-07T19:10:34.288Z,82.50
2019-05-07T19:13:02.751Z,83.60
2019-05-07T19:15:32.910Z,82.40
2019-05-07T19:18:02.657Z,79.90
2019-05-07T19:20:32.758Z,79.00
2019-05-07T19:23:02.682Z,80.00
2019-05-07T19:25:32.695Z,80.80
2019-05-07T19:28:02.030Z,82.10
2019-05-07T19:30:32.647Z,83.60
2019-05-07T19:33:01.025Z,85.10
2019-05-07T19:35:29.423Z,86.60
2019-05-07T19:37:57.869Z,89.40
2019-05-07T19:40:26.261Z,89.40
2019-05-07T19:42:54.777Z,90.30
2019-05-07T19:45:24.552Z,90.60
2019-05-07T19:47:53.112Z,91.40
2019-05-07T19:50:23.312Z,91.70
2019-05-07T19:52:52.160Z,92.20
2019-05-07T19:55:21.970Z,93.00
2019-05-07T19:57:52.225Z,93.10
2019-05-07T20:00:22.988Z,92.90
2019-05-07T20:02:53.169Z,92.80
2019-05-07T20:05:21.642Z,93.50
2019-05-07T20:07:53.344Z,93.80
2019-05-07T20:10:33.640Z,93.80
2019-05-07T20:13:03.128Z,94.40
2019-05-07T20:15:32.684Z,95.10
2019-05-07T20:18:03.123Z,95.30
2019-05-07T20:20:33.190Z,95.60
2019-05-07T20:23:02.612Z,95.70
2019-05-07T20:25:33.250Z,95.80
2019-05-07T20:28:02.179Z,95.90
2019-05-07T20:30:32.472Z,96.00
2019-05-07T20:33:02.945Z,96.50
2019-05-07T20:35:32.659Z,96.10
2019-05-07T20:38:02.914Z,96.50
2019-05-07T20:40:32.050Z,96.20
2019-05-07T20:43:01.936Z,96.60
2019-05-07T20:45:32.073Z,96.60
2019-05-07T20:48:02.572Z,97.20
2019-05-07T20:50:33.095Z,97.40
2019-05-07T20:53:02.054Z,97.50
2019-05-07T20:55:48.412Z,97.70
2019-05-07T20:58:16.892Z,98.10
2019-05-07T21:00:46.150Z,98.20
2019-05-07T21:03:23.249Z,98.50
2019-05-07T21:05:52.948Z,98.90
2019-05-07T21:08:22.827Z,99.00
2019-05-07T21:10:53.607Z,99.50
2019-05-07T21:13:28.492Z,99.80
2019-05-07T21:15:52.654Z,99.80
2019-05-07T21:18:23.346Z,99.90
2019-05-07T21:20:52.919Z,99.90
2019-05-07T21:23:23.083Z,99.80
2019-05-07T21:25:52.811Z,99.60
2019-05-07T21:28:21.724Z,99.50
2019-05-07T21:30:52.147Z,99.90
2019-05-07T21:33:22.948Z,99.90
2019-05-07T21:35:52.297Z,99.90
2019-05-07T21:38:22.369Z,99.90
2019-05-07T21:40:51.270Z,99.90
2019-05-07T21:43:21.864Z,99.90
2019-05-07T21:45:49.827Z,99.90
2019-05-07T21:48:18.218Z,99.90
2019-05-07T21:50:46.621Z,99.90
2019-05-07T21:53:28.505Z,99.90
2019-05-07T21:56:04.728Z,99.90
2019-05-07T21:58:39.133Z,99.90
2019-05-07T22:01:12.344Z,99.90
2019-05-07T22:03:43.189Z,99.90
2019-05-07T22:06:12.869Z,99.90
2019-05-07T22:08:41.493Z,99.90
2019-05-07T22:11:12.303Z,99.90
2019-05-07T22:13:43.294Z,99.90
2019-05-07T22:16:13.069Z,99.90
2019-05-07T22:18:42.731Z,99.90
2019-05-07T22:21:12.510Z,99.90
2019-05-07T22:23:42.846Z,99.90
2019-05-07T22:26:20.303Z,99.90
2019-05-07T22:28:42.017Z,99.90
2019-05-07T22:31:12.694Z,99.90
2019-05-07T22:33:52.774Z,99.90
2019-05-07T22:36:22.082Z,99.90
2019-05-07T22:38:52.673Z,99.90
2019-05-07T22:41:22.400Z,99.90
2019-05-07T22:43:50.973Z,99.90
2019-05-07T22:46:21.962Z,99.90
2019-05-07T22:48:49.577Z,99.90
2019-05-07T22:51:18.052Z,99.90
2019-05-07T22:53:47.306Z,99.90
2019-05-07T22:56:15.691Z,99.90
2019-05-07T22:58:48.407Z,99.90
2019-05-07T23:01:18.593Z,99.90
2019-05-07T23:03:47.244Z,99.90
2019-05-07T23:06:15.652Z,99.90
2019-05-07T23:08:44.076Z,99.90
2019-05-07T23:11:12.554Z,99.90
2019-05-07T23:13:42.659Z,99.90
2019-05-07T23:16:12.525Z,99.90
2019-05-07T23:18:42.926Z,99.90
2019-05-07T23:21:11.450Z,99.90
2019-05-07T23:23:41.974Z,99.90
2019-05-07T23:26:12.220Z,99.90
2019-05-07T23:28:41.897Z,99.90
2019-05-07T23:31:12.095Z,99.90
2019-05-07T23:33:40.738Z,99.90
2019-05-07T23:36:09.207Z,99.90
2019-05-07T23:38:37.621Z,99.90
2019-05-07T23:41:07.697Z,99.90
2019-05-07T23:43:36.089Z,99.90
2019-05-07T23:46:04.469Z,99.90
2019-05-07T23:48:32.897Z,99.90
2019-05-07T23:51:02.129Z,99.90
2019-05-07T23:53:30.771Z,99.90
2019-05-07T23:55:59.555Z,99.90
2019-05-07T23:58:27.950Z,99.90
